Time;durP1;ratioP1;P1;durP2;ratioP2;P2;SDS_P1;SDS_P2;PMS_P1;PMS_P2;Temp;Humidity;BMP_temperature;BMP_pressure;BME280_temperature;BME280_humidity;BME280_pressure;Samples;Min_cycle;Max_cycle;Signal;HPM_P1;HPM_P2
2023/10/09 00:13:32;;;;;;;7.60;3.13;;;;;;;10.59;100.00;99752.63;31090764;28;20061;-74
2023/10/09 00:28:41;;;;;;;5.40;2.47;;;;;;;10.77;100.00;99762.25;31083273;28;20431;-73
2023/10/09 00:43:43;;;;;;;4.67;2.50;;;;;;;10.38;100.00;99774.09;31085534;28;20407;-73
2023/10/09 00:58:56;;;;;;;3.27;1.70;;;;;;;10.42;94.28;99789.09;31079018;28;20407;-74
2023/10/09 01:29:14;;;;;;;7.70;1.80;;;;;;;10.07;97.81;99836.00;31066391;28;20046;-79
2023/10/09 02:01:09;;;;;;;2.93;1.60;;;;;;;10.10;100.00;99868.47;31460288;27;20399;-79
2023/10/09 02:16:14;;;;;;;4.60;1.50;;;;;;;9.71;100.00;99885.53;31333497;28;20662;-79
2023/10/09 02:31:21;;;;;;;1.83;1.23;;;;;;;9.61;100.00;99907.44;31342868;28;20474;-80
2023/10/09 02:46:30;;;;;;;1.50;1.03;;;;;;;9.48;100.00;99909.97;31304653;28;20054;-79
2023/10/09 03:01:37;;;;;;;1.63;1.23;;;;;;;9.54;100.00;99916.44;31263078;28;20049;-80
2023/10/09 03:16:39;;;;;;;2.43;1.30;;;;;;;9.49;100.00;99917.69;31215328;28;20058;-80
2023/10/09 03:31:43;;;;;;;1.90;0.77;;;;;;;9.34;100.00;99951.63;31230976;28;20106;-80
2023/10/09 03:46:46;;;;;;;1.97;1.10;;;;;;;9.52;100.00;99970.28;31266377;28;20089;-80
2023/10/09 04:01:50;;;;;;;1.87;1.10;;;;;;;9.45;100.00;99981.25;31232151;28;20536;-80
2023/10/09 04:17:03;;;;;;;3.97;1.17;;;;;;;9.67;100.00;99987.84;31244260;28;20228;-79
2023/10/09 04:32:15;;;;;;;2.37;0.80;;;;;;;9.72;100.00;100010.97;31210751;28;20053;-78
2023/10/09 04:47:25;;;;;;;5.07;3.50;;;;;;;9.98;100.00;100031.03;31209278;28;20092;-80
2023/10/09 05:02:36;;;;;;;1.57;1.13;;;;;;;10.65;100.00;100061.56;31202258;28;20045;-73
2023/10/09 05:17:38;;;;;;;70.30;19.17;;;;;;;11.35;93.37;100083.69;31231635;28;20100;-80
2023/10/09 05:32:48;;;;;;;1.67;1.23;;;;;;;12.54;90.08;100078.31;31209124;28;20057;-73
2023/10/09 05:47:56;;;;;;;1.33;1.20;;;;;;;14.20;77.72;100109.03;31185067;28;20103;-74
2023/10/09 06:18:34;;;;;;;4.17;1.40;;;;;;;12.93;79.29;100147.28;31183470;28;20053;-72
2023/10/09 06:33:58;;;;;;;2.73;1.50;;;;;;;13.49;83.42;100163.19;31248168;28;20049;-74
2023/10/09 06:48:59;;;;;;;2.60;1.30;;;;;;;15.02;80.79;100178.72;31236252;28;20060;-73
2023/10/09 07:04:18;;;;;;;1.13;1.00;;;;;;;16.69;73.89;100194.00;31235558;28;20081;-71
2023/10/09 07:34:58;;;;;;;1.43;1.00;;;;;;;18.31;64.40;100235.53;31191510;28;20083;-74
2023/10/09 07:50:02;;;;;;;1.73;0.83;;;;;;;18.13;57.09;100260.38;31214876;28;20148;-81
2023/10/09 08:05:18;;;;;;;1.77;1.23;;;;;;;17.95;61.80;100283.22;31271102;28;20057;-82
2023/10/09 08:20:36;;;;;;;9.77;3.40;;;;;;;17.18;60.08;100288.25;31225388;28;20057;-74
2023/10/09 08:36:01;;;;;;;1.47;0.97;;;;;;;15.99;63.61;100318.94;31196327;28;20052;-79
2023/10/09 08:51:07;;;;;;;1.00;0.90;;;;;;;16.82;57.31;100321.91;31218242;28;20426;-74
2023/10/09 09:06:09;;;;;;;6.57;3.43;;;;;;;17.17;62.18;100347.09;31181080;28;20049;-74
2023/10/09 09:21:27;;;;;;;3.77;1.97;;;;;;;16.38;58.98;100349.50;31200753;28;20465;-73
2023/10/09 09:36:34;;;;;;;3.60;2.17;;;;;;;18.01;51.97;100325.28;31192885;28;20511;-74
2023/10/09 09:51:36;;;;;;;5.17;1.47;;;;;;;16.92;52.34;100331.69;31199537;28;20049;-78
2023/10/09 10:06:41;;;;;;;1.87;1.50;;;;;;;15.81;55.79;100340.00;31207510;28;20057;-73
2023/10/09 10:21:48;;;;;;;6.83;1.97;;;;;;;15.40;62.27;100354.72;31223988;28;20107;-74
2023/10/09 10:36:58;;;;;;;1.83;1.40;;;;;;;15.53;58.30;100358.19;31255863;28;20057;-75
2023/10/09 10:52:17;;;;;;;3.20;2.30;;;;;;;15.36;59.83;100360.31;31242132;28;20101;-78
2023/10/09 11:22:36;;;;;;;2.10;1.43;;;;;;;15.00;61.21;100363.53;31229218;28;20084;-77
2023/10/09 11:37:48;;;;;;;3.37;1.47;;;;;;;14.96;60.43;100371.06;31236490;28;20123;-77
2023/10/09 12:08:22;;;;;;;3.23;2.70;;;;;;;14.85;62.46;100368.72;31227315;28;20049;-77
2023/10/09 12:23:27;;;;;;;5.00;2.53;;;;;;;14.80;59.61;100368.50;31168354;28;20088;-75
2023/10/09 12:38:32;;;;;;;;;;;;;;;15.05;54.99;100362.97;31222036;28;20049;-76
2023/10/09 12:53:40;;;;;;;3.73;2.67;;;;;;;15.14;60.14;100359.53;31247010;28;19929;-78
2023/10/09 13:08:45;;;;;;;3.37;2.47;;;;;;;14.90;57.53;100357.19;31246194;28;20049;-77
2023/10/09 13:23:50;;;;;;;3.43;2.70;;;;;;;14.80;57.21;100335.72;31243444;28;20045;-77
2023/10/09 13:39:52;;;;;;;3.30;2.57;;;;;;;14.95;57.67;100336.75;31242149;28;20050;-77
2023/10/09 14:09:44;;;;;;;2.73;2.33;;;;;;;14.26;62.15;100355.72;31242956;28;20049;-77
2023/10/09 14:24:55;;;;;;;3.70;2.37;;;;;;;14.17;60.12;100377.47;31240721;28;20053;-77
2023/10/09 14:39:58;;;;;;;14.70;10.10;;;;;;;13.84;61.38;100394.00;31218696;28;20061;-74
2023/10/09 14:55:01;;;;;;;4.50;2.93;;;;;;;13.60;61.35;100412.59;31128042;28;20054;-73
2023/10/09 15:10:05;;;;;;;3.83;2.47;;;;;;;13.50;60.54;100415.59;31250658;28;20079;-74
2023/10/09 15:25:07;;;;;;;3.87;2.43;;;;;;;13.25;60.88;100414.28;31243884;28;20064;-74
2023/10/09 15:40:18;;;;;;;15.53;7.07;;;;;;;13.09;61.61;100438.81;31160300;28;20054;-77
2023/10/09 15:55:24;;;;;;;4.73;3.37;;;;;;;12.94;60.64;100449.31;31122434;28;20054;-72
2023/10/09 16:10:28;;;;;;;9.97;4.97;;;;;;;12.76;62.38;100459.06;31185957;28;20064;-80
2023/10/09 16:25:33;;;;;;;11.83;3.80;;;;;;;12.47;66.28;100476.06;31199573;28;20133;-77
2023/10/09 16:40:36;;;;;;;6.82;4.75;;;;;;;12.23;65.07;100493.69;31152082;28;20057;-75
2023/10/09 16:55:43;;;;;;;8.90;4.10;;;;;;;12.15;66.88;100492.28;31170270;28;20064;-79
2023/10/09 17:10:45;;;;;;;6.97;3.27;;;;;;;12.06;68.39;100478.47;31207430;28;20495;-75
2023/10/09 17:25:48;;;;;;;5.63;3.47;;;;;;;11.93;67.94;100476.38;31222730;28;20088;-74
2023/10/09 17:40:53;;;;;;;67.90;19.40;;;;;;;11.80;69.20;100464.59;31238221;28;20065;-76
2023/10/09 17:55:58;;;;;;;5.90;3.67;;;;;;;11.79;69.55;100465.78;31174476;28;20057;-76
2023/10/09 18:11:00;;;;;;;7.47;3.73;;;;;;;11.70;69.64;100462.78;31119884;28;20054;-80
2023/10/09 18:26:05;;;;;;;6.83;2.90;;;;;;;11.58;73.36;100471.56;31193510;28;20104;-80
2023/10/09 18:41:10;;;;;;;6.63;3.13;;;;;;;11.47;73.65;100479.16;31225396;28;20080;-80
2023/10/09 18:56:19;;;;;;;7.40;3.97;;;;;;;11.43;72.97;100487.34;31263000;28;20061;-79
2023/10/09 19:11:23;;;;;;;7.27;3.00;;;;;;;11.16;72.35;100495.56;31254199;28;20104;-81
2023/10/09 19:26:33;;;;;;;7.23;4.47;;;;;;;11.22;73.47;100509.44;31138887;28;20054;-78
2023/10/09 19:41:36;;;;;;;6.63;3.20;;;;;;;11.35;71.79;100498.75;31151197;28;20065;-74
2023/10/09 19:56:42;;;;;;;8.00;3.43;;;;;;;11.42;69.97;100496.69;31245654;28;20513;-72
2023/10/09 20:11:45;;;;;;;7.43;3.73;;;;;;;10.93;72.73;100512.59;31204359;28;20056;-73
2023/10/09 20:26:49;;;;;;;9.63;5.03;;;;;;;10.81;76.22;100506.97;31171908;28;20093;-72
2023/10/09 20:41:51;;;;;;;8.93;4.90;;;;;;;10.54;77.21;100518.56;31174601;28;20112;-75
2023/10/09 20:56:53;;;;;;;7.67;4.13;;;;;;;10.30;75.45;100514.22;31150998;28;20049;-75
2023/10/09 21:11:59;;;;;;;13.80;8.07;;;;;;;10.40;74.22;100518.72;31183254;28;20049;-75
2023/10/09 21:27:02;;;;;;;31.77;14.00;;;;;;;10.31;73.24;100513.03;31204918;28;20057;-76
2023/10/09 21:42:09;;;;;;;10.43;5.50;;;;;;;10.26;75.11;100521.63;31237156;28;20092;-76
2023/10/09 21:57:11;;;;;;;6.87;3.57;;;;;;;9.79;74.06;100526.75;31244981;28;20503;-77
2023/10/09 22:12:13;;;;;;;10.07;4.47;;;;;;;9.57;76.59;100541.66;31261353;28;20050;-76
2023/10/09 22:27:24;;;;;;;6.03;4.07;;;;;;;9.60;76.07;100546.28;31259623;28;20491;-76
2023/10/09 22:42:29;;;;;;;8.60;4.47;;;;;;;9.56;79.57;100545.56;31234365;28;20049;-77
2023/10/09 22:57:34;;;;;;;6.83;4.30;;;;;;;9.51;76.92;100551.41;31185737;28;20072;-77
2023/10/09 23:12:36;;;;;;;6.13;3.80;;;;;;;9.45;75.32;100548.34;31253634;28;20049;-76
2023/10/09 23:27:47;;;;;;;5.87;3.37;;;;;;;9.60;75.68;100548.22;31254269;28;20049;-76
2023/10/09 23:42:58;;;;;;;11.80;3.83;;;;;;;9.78;73.84;100541.47;31175724;28;20141;-77
2023/10/09 23:58:16;;;;;;;10.57;3.57;;;;;;;9.74;73.27;100524.47;31210984;28;20148;-76
